createdAt,value
2023-01-30T00:03:26.036Z,6.40
2023-01-30T00:08:29.915Z,6.88
2023-01-30T00:13:35.616Z,7.15
2023-01-30T00:18:41.059Z,6.68
2023-01-30T00:23:45.770Z,6.43
2023-01-30T00:28:51.199Z,6.28
2023-01-30T00:33:54.951Z,7.30
2023-01-30T00:39:00.551Z,7.32
2023-01-30T00:44:23.050Z,6.13
2023-01-30T00:49:26.800Z,7.00
2023-01-30T00:54:30.522Z,6.95
2023-01-30T00:59:36.875Z,6.18
2023-01-30T01:04:43.447Z,7.03
2023-01-30T01:09:48.090Z,6.40
2023-01-30T01:14:53.246Z,6.82
2023-01-30T01:19:57.014Z,6.82
2023-01-30T01:25:00.662Z,6.38
2023-01-30T01:30:07.095Z,6.28
2023-01-30T01:35:12.144Z,7.15
2023-01-30T01:40:41.003Z,7.03
2023-01-30T01:45:47.064Z,6.05
2023-01-30T01:50:56.705Z,6.88
2023-01-30T01:56:02.262Z,5.32
2023-01-30T02:01:08.841Z,7.05
2023-01-30T02:06:15.897Z,6.53
2023-01-30T02:11:28.214Z,6.07
2023-01-30T02:16:33.599Z,5.93
2023-01-30T02:22:28.874Z,7.07
2023-01-30T02:28:12.641Z,6.47
2023-01-30T02:33:25.717Z,5.90
2023-01-30T02:38:41.075Z,5.70
2023-01-30T02:43:56.325Z,5.60
2023-01-30T02:49:09.698Z,6.40
2023-01-30T02:54:16.941Z,5.35
2023-01-30T02:59:29.775Z,6.63
2023-01-30T03:05:10.057Z,5.18
2023-01-30T03:10:28.357Z,5.60
2023-01-30T03:15:43.755Z,5.70
2023-01-30T03:20:49.377Z,6.15
2023-01-30T03:25:53.151Z,6.18
2023-01-30T03:30:57.036Z,5.80
2023-01-30T03:36:02.310Z,6.05
2023-01-30T03:41:07.003Z,6.18
2023-01-30T03:46:11.465Z,5.78
2023-01-30T03:51:17.710Z,6.10
2023-01-30T03:56:21.564Z,5.72
2023-01-30T04:01:26.176Z,4.93
2023-01-30T04:06:31.458Z,5.15
2023-01-30T04:11:35.895Z,5.25
2023-01-30T04:16:39.903Z,5.45
2023-01-30T04:22:23.224Z,5.07
2023-01-30T04:27:27.143Z,5.80
2023-01-30T04:32:49.147Z,6.20
2023-01-30T04:37:54.296Z,5.00
2023-01-30T04:42:58.105Z,5.65
2023-01-30T04:48:18.071Z,4.95
2023-01-30T04:53:25.223Z,5.68
2023-01-30T04:58:29.127Z,5.03
2023-01-30T05:03:32.892Z,5.63
2023-01-30T05:08:38.089Z,5.18
2023-01-30T05:13:46.465Z,4.82
2023-01-30T05:18:50.763Z,5.22
2023-01-30T05:23:56.638Z,5.28
2023-01-30T05:29:00.453Z,4.65
2023-01-30T05:34:04.118Z,4.88
2023-01-30T05:39:09.272Z,4.32
2023-01-30T05:44:13.025Z,5.65
2023-01-30T05:49:17.126Z,5.45
2023-01-30T05:54:22.174Z,4.78
2023-01-30T05:59:25.803Z,4.38
2023-01-30T06:04:29.671Z,4.00
2023-01-30T06:09:34.738Z,4.30
2023-01-30T06:14:38.402Z,5.05
2023-01-30T06:19:42.392Z,4.10
2023-01-30T06:24:47.547Z,4.68
2023-01-30T06:29:51.173Z,4.68
2023-01-30T06:34:54.870Z,4.60
2023-01-30T06:39:59.907Z,4.05
2023-01-30T06:45:03.823Z,3.67
2023-01-30T06:50:08.075Z,4.70
2023-01-30T06:55:17.522Z,4.53
2023-01-30T07:00:23.150Z,4.47
2023-01-30T07:05:28.919Z,4.20
2023-01-30T07:10:35.480Z,4.90
2023-01-30T07:15:39.450Z,3.70
2023-01-30T07:20:43.368Z,3.88
2023-01-30T07:25:48.473Z,4.95
2023-01-30T07:30:52.936Z,2.78
2023-01-30T07:35:57.528Z,3.80
2023-01-30T07:41:02.585Z,3.92
2023-01-30T07:46:06.820Z,4.18
2023-01-30T07:51:10.508Z,4.25
2023-01-30T07:56:18.659Z,4.23
2023-01-30T08:06:26.284Z,4.78
2023-01-30T08:11:31.377Z,2.95
2023-01-30T08:16:35.250Z,4.45
2023-01-30T08:21:38.927Z,3.28
2023-01-30T08:26:44.055Z,3.75
2023-01-30T08:31:49.775Z,4.20
2023-01-30T08:36:53.713Z,3.13
2023-01-30T08:41:58.817Z,3.33
2023-01-30T08:47:02.530Z,4.40
2023-01-30T08:52:06.277Z,4.05
2023-01-30T08:57:11.519Z,4.22
2023-01-30T09:02:15.498Z,3.28
2023-01-30T09:07:19.263Z,2.95
2023-01-30T09:12:24.505Z,3.65
2023-01-30T09:17:28.267Z,4.15
2023-01-30T09:22:32.105Z,3.40
2023-01-30T09:27:37.633Z,3.08
2023-01-30T09:32:41.258Z,3.28
2023-01-30T09:37:51.776Z,3.90
2023-01-30T09:43:35.233Z,3.63
2023-01-30T09:48:49.360Z,4.57
2023-01-30T09:54:18.195Z,4.07
2023-01-30T09:59:33.777Z,4.22
2023-01-30T10:04:51.680Z,4.05
2023-01-30T10:10:15.448Z,3.22
2023-01-30T10:15:49.118Z,3.63
2023-01-30T10:21:05.727Z,4.05
2023-01-30T10:26:14.116Z,4.32
2023-01-30T10:31:23.888Z,4.32
2023-01-30T10:36:40.944Z,4.78
2023-01-30T10:41:56.801Z,5.72
2023-01-30T10:47:46.620Z,5.53
2023-01-30T10:53:01.344Z,3.88
2023-01-30T10:58:18.192Z,5.68
2023-01-30T11:03:34.739Z,6.25
2023-01-30T11:08:38.594Z,6.72
2023-01-30T11:13:42.226Z,5.50
2023-01-30T11:19:22.632Z,6.65
2023-01-30T11:24:19.933Z,5.70
2023-01-30T11:29:31.336Z,7.77
2023-01-30T11:34:36.439Z,9.15
2023-01-30T11:39:50.133Z,5.90
2023-01-30T11:45:15.550Z,5.18
2023-01-30T11:50:26.967Z,6.40
2023-01-30T11:55:49.943Z,5.72
2023-01-30T12:01:05.459Z,6.75
2023-01-30T12:06:10.578Z,6.82
2023-01-30T12:11:42.367Z,7.28
2023-01-30T12:17:01.606Z,7.00
2023-01-30T12:22:24.358Z,5.70
2023-01-30T12:27:50.206Z,5.88
2023-01-30T12:38:28.476Z,7.38
2023-01-30T12:43:59.692Z,7.47
2023-01-30T12:49:40.193Z,5.35
2023-01-30T12:54:58.327Z,5.35
2023-01-30T13:05:36.879Z,6.38
2023-01-30T13:10:51.902Z,6.13
2023-01-30T13:16:07.061Z,7.55
2023-01-30T13:21:20.697Z,7.93
2023-01-30T13:26:34.448Z,7.78
2023-01-30T13:31:43.399Z,6.68
2023-01-30T13:36:53.728Z,6.20
2023-01-30T13:42:01.116Z,8.40
2023-01-30T13:47:26.315Z,6.60
2023-01-30T13:52:37.947Z,6.35
2023-01-30T13:57:56.164Z,5.28
2023-01-30T14:08:48.170Z,8.05
2023-01-30T14:13:55.829Z,8.57
2023-01-30T14:18:59.601Z,6.63
2023-01-30T14:24:06.629Z,6.95
2023-01-30T14:29:11.781Z,7.05
2023-01-30T14:35:03.742Z,8.60
2023-01-30T14:40:39.940Z,5.47
2023-01-30T14:45:51.485Z,9.27
2023-01-30T14:51:23.158Z,7.57
2023-01-30T14:56:49.493Z,6.65
2023-01-30T15:02:25.577Z,8.20
2023-01-30T15:07:33.992Z,7.03
2023-01-30T15:18:39.869Z,8.25
2023-01-30T15:24:17.839Z,7.43
2023-01-30T15:30:17.952Z,7.43
2023-01-30T15:35:30.171Z,6.45
2023-01-30T15:40:34.248Z,7.88
2023-01-30T15:45:53.336Z,6.57
2023-01-30T15:51:01.095Z,7.95
2023-01-30T15:56:10.428Z,6.53
2023-01-30T16:01:21.787Z,6.05
2023-01-30T16:06:33.782Z,6.43
2023-01-30T16:11:41.116Z,7.20
2023-01-30T16:16:50.291Z,6.38
2023-01-30T16:22:00.198Z,6.40
2023-01-30T16:27:08.703Z,5.45
2023-01-30T16:32:15.297Z,6.35
2023-01-30T16:37:31.869Z,6.22
2023-01-30T16:42:35.777Z,8.52
2023-01-30T16:47:40.124Z,8.95
2023-01-30T16:52:51.844Z,5.90
2023-01-30T16:57:59.611Z,6.72
2023-01-30T17:03:07.507Z,7.40
2023-01-30T17:08:49.404Z,7.63
2023-01-30T17:14:22.548Z,7.90
2023-01-30T17:19:26.269Z,6.38
2023-01-30T17:24:31.583Z,6.65
2023-01-30T17:29:42.891Z,5.65
2023-01-30T17:34:47.147Z,8.68
2023-01-30T17:39:52.362Z,6.47
2023-01-30T17:44:56.165Z,6.05
2023-01-30T17:49:59.920Z,7.20
2023-01-30T17:55:05.552Z,5.05
2023-01-30T18:00:18.124Z,5.13
2023-01-30T18:05:23.249Z,5.43
2023-01-30T18:10:28.933Z,7.30
2023-01-30T18:15:32.689Z,7.55
2023-01-30T18:20:36.432Z,6.85
2023-01-30T18:25:41.586Z,6.32
2023-01-30T18:30:45.385Z,6.00
2023-01-30T18:35:49.101Z,6.22
2023-01-30T18:40:54.222Z,6.25
2023-01-30T18:46:06.550Z,7.35
2023-01-30T18:51:14.766Z,5.60
2023-01-30T18:56:22.718Z,5.55
2023-01-30T19:01:28.960Z,6.53
2023-01-30T19:06:33.257Z,6.38
2023-01-30T19:11:55.679Z,5.65
2023-01-30T19:16:59.414Z,5.72
2023-01-30T19:22:03.313Z,6.57
2023-01-30T19:27:09.927Z,6.47
2023-01-30T19:32:13.683Z,5.20
2023-01-30T19:37:17.342Z,5.20
2023-01-30T19:42:22.420Z,5.68
2023-01-30T19:47:26.045Z,6.25
2023-01-30T19:52:29.740Z,6.95
2023-01-30T19:57:35.854Z,6.35
2023-01-30T20:02:39.630Z,6.40
2023-01-30T20:07:44.842Z,6.05
2023-01-30T20:12:50.319Z,5.95
2023-01-30T20:17:54.100Z,6.72
2023-01-30T20:22:57.809Z,7.63
2023-01-30T20:28:03.156Z,5.60
2023-01-30T20:33:07.027Z,6.90
2023-01-30T20:38:10.988Z,6.13
2023-01-30T20:43:17.626Z,6.05
2023-01-30T20:48:21.443Z,6.30
2023-01-30T20:53:25.272Z,6.50
2023-01-30T20:58:31.544Z,7.50
2023-01-30T21:03:35.336Z,5.72
2023-01-30T21:08:40.523Z,7.03
2023-01-30T21:13:46.064Z,6.03
2023-01-30T21:18:53.562Z,5.95
2023-01-30T21:24:08.499Z,6.95
2023-01-30T21:29:16.426Z,8.00
2023-01-30T21:34:20.295Z,7.88
2023-01-30T21:39:41.506Z,7.82
2023-01-30T21:44:46.756Z,8.50
2023-01-30T21:49:55.012Z,7.53
2023-01-30T22:00:04.337Z,8.48
2023-01-30T22:05:11.010Z,8.98
2023-01-30T22:10:14.637Z,7.78
2023-01-30T22:15:20.799Z,8.93
2023-01-30T22:20:24.717Z,8.55
2023-01-30T22:25:28.419Z,8.60
2023-01-30T22:30:33.525Z,10.68
2023-01-30T22:35:37.340Z,12.25
2023-01-30T22:40:40.971Z,9.45
2023-01-30T22:45:46.175Z,9.07
2023-01-30T22:51:01.354Z,8.60
2023-01-30T22:56:22.433Z,10.07
2023-01-30T23:01:37.301Z,10.55
2023-01-30T23:06:41.974Z,10.27
2023-01-30T23:12:10.023Z,8.82
2023-01-30T23:17:32.691Z,9.32
2023-01-30T23:22:36.756Z,9.45
2023-01-30T23:27:40.389Z,8.63
2023-01-30T23:32:45.542Z,9.10
2023-01-30T23:38:06.690Z,8.95
2023-01-30T23:43:11.737Z,8.98
2023-01-30T23:48:16.935Z,9.13
2023-01-30T23:53:20.691Z,9.88
2023-01-30T23:58:24.404Z,9.35
